createdAt,value
2022-10-19T00:02:22.780Z,306.85
2022-10-19T00:04:49.418Z,307.23
2022-10-19T00:07:16.098Z,308.90
2022-10-19T00:09:44.510Z,305.80
2022-10-19T00:12:12.948Z,300.33
2022-10-19T00:14:39.697Z,301.63
2022-10-19T00:17:06.236Z,303.23
2022-10-19T00:19:32.837Z,297.67
2022-10-19T00:21:59.391Z,297.57
2022-10-19T00:24:26.002Z,292.88
2022-10-19T00:26:52.699Z,287.08
2022-10-19T00:29:19.330Z,287.90
2022-10-19T00:31:46.022Z,287.10
2022-10-19T00:34:12.677Z,284.58
2022-10-19T00:36:40.781Z,282.15
2022-10-19T00:39:11.339Z,278.00
2022-10-19T00:41:38.780Z,278.90
2022-10-19T00:44:27.133Z,282.58
2022-10-19T00:46:53.974Z,280.90
2022-10-19T00:49:24.458Z,284.65
2022-10-19T00:51:55.582Z,282.45
2022-10-19T00:54:23.869Z,278.85
2022-10-19T00:56:53.329Z,277.58
2022-10-19T00:59:22.220Z,281.83
2022-10-19T01:01:49.392Z,277.85
2022-10-19T01:04:16.361Z,273.48
2022-10-19T01:06:43.071Z,274.08
2022-10-19T01:09:09.737Z,276.52
2022-10-19T01:11:48.426Z,278.65
2022-10-19T01:14:30.170Z,273.40
2022-10-19T01:17:03.978Z,274.90
2022-10-19T01:19:52.256Z,276.80
2022-10-19T01:23:00.437Z,273.05
2022-10-19T01:25:36.003Z,270.92
2022-10-19T01:28:31.832Z,274.55
2022-10-19T01:31:23.156Z,267.92
2022-10-19T01:34:13.051Z,278.85
2022-10-19T01:37:00.857Z,272.75
2022-10-19T01:39:44.236Z,272.75
2022-10-19T01:42:26.369Z,273.00
2022-10-19T01:45:05.088Z,269.35
2022-10-19T01:47:38.617Z,275.50
2022-10-19T01:50:27.673Z,269.25
2022-10-19T01:52:56.573Z,271.85
2022-10-19T01:55:25.930Z,271.55
2022-10-19T01:57:58.527Z,277.45
2022-10-19T02:00:26.725Z,280.33
2022-10-19T02:02:54.858Z,283.23
2022-10-19T02:05:27.223Z,284.33
2022-10-19T02:07:59.681Z,282.90
2022-10-19T02:10:28.385Z,284.27
2022-10-19T02:12:56.118Z,287.63
2022-10-19T02:15:27.066Z,296.80
2022-10-19T02:17:57.375Z,291.27
2022-10-19T02:20:24.404Z,294.48
2022-10-19T02:22:51.086Z,295.52
2022-10-19T02:25:18.004Z,285.80
2022-10-19T02:27:44.993Z,282.02
2022-10-19T02:30:14.484Z,279.80
2022-10-19T02:32:42.304Z,280.80
2022-10-19T02:35:10.390Z,279.50
2022-10-19T02:37:37.166Z,279.58
2022-10-19T02:40:04.972Z,286.50
2022-10-19T02:42:40.622Z,283.77
2022-10-19T02:45:29.014Z,286.85
2022-10-19T02:48:01.067Z,297.13
2022-10-19T02:50:27.930Z,295.53
2022-10-19T02:52:54.473Z,296.90
2022-10-19T02:55:21.107Z,295.23
2022-10-19T02:57:47.648Z,292.33
2022-10-19T03:00:14.695Z,289.00
2022-10-19T03:02:42.705Z,294.60
2022-10-19T03:05:09.758Z,302.45
2022-10-19T03:07:36.868Z,303.08
2022-10-19T03:10:03.817Z,299.00
2022-10-19T03:12:30.392Z,296.13
2022-10-19T03:14:56.973Z,302.50
2022-10-19T03:17:23.671Z,298.52
2022-10-19T03:19:50.299Z,298.55
2022-10-19T03:22:16.896Z,295.23
2022-10-19T03:24:43.566Z,304.50
2022-10-19T03:27:10.181Z,305.00
2022-10-19T03:29:36.824Z,298.33
2022-10-19T03:32:03.725Z,292.58
2022-10-19T03:34:30.383Z,290.20
2022-10-19T03:36:59.138Z,285.00
2022-10-19T03:39:26.123Z,290.88
2022-10-19T03:41:52.867Z,300.83
2022-10-19T03:44:19.434Z,297.02
2022-10-19T03:46:46.006Z,296.40
2022-10-19T03:49:12.596Z,302.80
2022-10-19T03:51:39.189Z,300.20
2022-10-19T03:54:08.250Z,301.20
2022-10-19T03:56:36.093Z,295.30
2022-10-19T03:59:05.146Z,306.38
2022-10-19T04:01:40.301Z,304.13
2022-10-19T04:04:11.435Z,293.13
2022-10-19T04:06:41.426Z,288.77
2022-10-19T04:09:11.110Z,291.33
2022-10-19T04:11:38.245Z,287.80
2022-10-19T04:14:05.455Z,297.93
2022-10-19T04:16:32.648Z,295.27
2022-10-19T04:18:59.546Z,297.45
2022-10-19T04:21:31.813Z,301.92
2022-10-19T04:24:03.112Z,302.63
2022-10-19T04:26:30.401Z,309.95
2022-10-19T04:28:58.636Z,318.95
2022-10-19T04:31:26.007Z,309.42
2022-10-19T04:33:52.719Z,302.40
2022-10-19T04:36:19.672Z,303.47
2022-10-19T04:38:46.574Z,308.20
2022-10-19T04:41:17.465Z,316.65
2022-10-19T04:43:47.348Z,319.10
2022-10-19T04:46:17.153Z,317.08
2022-10-19T04:48:44.393Z,315.98
2022-10-19T04:51:11.684Z,302.67
2022-10-19T04:53:39.735Z,304.05
2022-10-19T04:56:09.278Z,304.70
2022-10-19T04:58:35.955Z,311.80
2022-10-19T05:01:15.147Z,316.17
2022-10-19T05:03:41.839Z,303.70
2022-10-19T05:06:09.550Z,304.70
2022-10-19T05:08:36.976Z,302.02
2022-10-19T05:11:05.898Z,305.75
2022-10-19T05:13:33.287Z,311.57
2022-10-19T05:16:01.657Z,306.67
2022-10-19T05:18:28.883Z,305.65
2022-10-19T05:21:21.968Z,304.60
2022-10-19T05:23:52.371Z,291.92
2022-10-19T05:26:21.118Z,283.42
2022-10-19T05:28:56.665Z,297.00
2022-10-19T05:31:29.252Z,302.05
2022-10-19T05:33:56.395Z,301.70
2022-10-19T05:36:28.764Z,301.58
2022-10-19T05:38:57.522Z,301.88
2022-10-19T05:41:25.530Z,305.40
2022-10-19T05:43:59.527Z,312.13
2022-10-19T05:46:28.396Z,308.10
2022-10-19T05:48:56.791Z,304.60
2022-10-19T05:51:24.825Z,298.58
2022-10-19T05:53:52.896Z,291.17
2022-10-19T05:56:25.805Z,292.42
2022-10-19T05:58:52.525Z,286.48
2022-10-19T06:01:20.094Z,289.85
2022-10-19T06:03:50.891Z,295.37
2022-10-19T06:06:17.910Z,296.55
2022-10-19T06:08:45.133Z,290.02
2022-10-19T06:11:14.488Z,286.73
2022-10-19T06:13:42.852Z,284.98
2022-10-19T06:16:10.748Z,295.50
2022-10-19T06:18:38.259Z,282.80
2022-10-19T06:21:07.178Z,276.85
2022-10-19T06:23:35.374Z,282.70
2022-10-19T06:26:04.309Z,276.87
2022-10-19T06:28:30.970Z,272.40
2022-10-19T06:30:58.692Z,279.77
2022-10-19T06:33:26.064Z,278.83
2022-10-19T06:35:52.848Z,277.13
2022-10-19T06:38:19.649Z,281.63
2022-10-19T06:40:46.404Z,276.48
2022-10-19T06:43:13.008Z,281.92
2022-10-19T06:45:39.746Z,288.45
2022-10-19T06:48:07.764Z,284.85
2022-10-19T06:50:35.317Z,281.70
2022-10-19T06:53:05.090Z,278.23
2022-10-19T06:55:31.671Z,281.92
2022-10-19T06:58:01.646Z,284.67
2022-10-19T07:00:29.480Z,282.77
2022-10-19T07:02:58.006Z,288.25
2022-10-19T07:05:24.694Z,278.23
2022-10-19T07:07:51.329Z,277.23
2022-10-19T07:10:18.070Z,277.50
2022-10-19T07:12:44.661Z,283.08
2022-10-19T07:15:11.196Z,278.02
2022-10-19T07:17:37.829Z,280.92
2022-10-19T07:20:04.818Z,279.33
2022-10-19T07:22:31.426Z,290.00
2022-10-19T07:24:58.368Z,289.52
2022-10-19T07:27:25.171Z,282.20
2022-10-19T07:29:51.727Z,283.25
2022-10-19T07:32:18.238Z,276.17
2022-10-19T07:34:44.850Z,276.65
2022-10-19T07:37:11.409Z,281.58
2022-10-19T07:39:38.052Z,277.63
2022-10-19T07:42:04.960Z,285.80
2022-10-19T07:44:31.627Z,283.15
2022-10-19T07:46:58.527Z,277.65
2022-10-19T07:49:25.243Z,271.80
2022-10-19T07:51:54.136Z,278.45
2022-10-19T07:54:21.475Z,275.50
2022-10-19T07:56:48.127Z,272.88
2022-10-19T07:59:16.912Z,273.02
2022-10-19T08:01:44.933Z,275.00
2022-10-19T08:04:59.085Z,267.23
2022-10-19T08:06:58.142Z,263.20
2022-10-19T08:12:15.199Z,260.20
2022-10-19T08:14:42.295Z,265.10
2022-10-19T08:17:11.647Z,259.13
2022-10-19T08:19:43.206Z,256.13
2022-10-19T08:22:10.525Z,261.90
2022-10-19T08:24:37.064Z,261.08
2022-10-19T08:27:03.929Z,251.07
2022-10-19T08:29:31.621Z,256.65
2022-10-19T08:31:59.034Z,273.70
2022-10-19T08:34:25.736Z,278.50
2022-10-19T08:36:52.354Z,276.55
2022-10-19T08:39:18.978Z,266.42
2022-10-19T08:42:06.774Z,267.95
2022-10-19T08:45:14.150Z,268.08
2022-10-19T08:48:18.188Z,261.27
2022-10-19T08:50:46.326Z,264.40
2022-10-19T08:53:22.449Z,262.13
2022-10-19T08:55:53.378Z,259.20
2022-10-19T08:58:31.040Z,254.93
2022-10-19T09:01:11.069Z,248.20
2022-10-19T09:03:56.743Z,252.05
2022-10-19T09:06:31.990Z,248.30
2022-10-19T09:08:59.566Z,236.52
2022-10-19T09:11:31.584Z,245.17
2022-10-19T09:14:18.440Z,237.60
2022-10-19T09:16:46.248Z,240.40
2022-10-19T09:19:22.005Z,236.93
2022-10-19T09:21:54.022Z,230.27
2022-10-19T09:24:32.758Z,222.35
2022-10-19T09:27:01.034Z,217.00
2022-10-19T09:29:39.047Z,213.15
2022-10-19T09:32:14.390Z,213.03
2022-10-19T09:34:46.311Z,202.55
2022-10-19T09:37:21.231Z,201.65
2022-10-19T09:40:16.860Z,203.70
2022-10-19T09:42:43.429Z,182.25
2022-10-19T09:45:34.245Z,163.10
2022-10-19T09:48:07.176Z,148.80
2022-10-19T09:50:43.584Z,136.63
2022-10-19T09:53:19.565Z,113.60
2022-10-19T09:55:53.501Z,70.25
2022-10-19T09:58:20.940Z,25.27
2022-10-19T10:00:55.894Z,4.68
2022-10-19T10:03:32.778Z,2.80
2022-10-19T10:06:04.653Z,1.90
2022-10-19T10:08:35.634Z,1.90
2022-10-19T10:11:07.127Z,1.80
2022-10-19T10:13:40.473Z,1.60
2022-10-19T10:16:10.398Z,1.50
2022-10-19T10:18:50.917Z,1.90
2022-10-19T10:21:26.250Z,1.50
2022-10-19T10:24:20.361Z,1.30
2022-10-19T10:26:51.801Z,1.20
2022-10-19T10:29:24.273Z,1.40
2022-10-19T10:32:15.510Z,1.50
2022-10-19T10:34:53.989Z,1.45
2022-10-19T10:37:29.931Z,1.17
2022-10-19T10:40:01.757Z,1.30
2022-10-19T10:42:43.143Z,1.33
2022-10-19T10:45:23.912Z,1.58
2022-10-19T10:47:52.005Z,1.30
2022-10-19T10:50:22.889Z,1.50
2022-10-19T10:52:58.707Z,1.30
2022-10-19T10:55:26.602Z,1.20
2022-10-19T10:58:05.027Z,1.30
2022-10-19T11:00:34.473Z,1.35
2022-10-19T11:03:19.710Z,1.20
2022-10-19T11:05:49.780Z,1.48
2022-10-19T11:08:25.354Z,1.60
2022-10-19T11:10:57.609Z,1.17
2022-10-19T11:13:30.948Z,1.20
2022-10-19T11:16:22.835Z,1.20
2022-10-19T11:18:56.444Z,1.10
2022-10-19T11:21:47.780Z,1.30
2022-10-19T11:24:35.396Z,1.17
2022-10-19T11:27:20.789Z,1.17
2022-10-19T11:30:29.174Z,1.38
2022-10-19T11:33:14.461Z,1.20
2022-10-19T11:36:33.288Z,1.05
2022-10-19T11:39:02.873Z,1.20
2022-10-19T11:41:39.217Z,1.00
2022-10-19T11:44:38.269Z,1.40
2022-10-19T11:47:43.799Z,1.40
2022-10-19T11:50:33.396Z,1.35
2022-10-19T11:53:15.945Z,1.40
2022-10-19T11:55:54.574Z,1.40
2022-10-19T11:58:49.171Z,1.40
2022-10-19T12:01:46.388Z,1.30
2022-10-19T12:04:12.986Z,1.20
2022-10-19T12:06:54.835Z,1.00
2022-10-19T12:09:48.862Z,1.10
2022-10-19T12:12:27.727Z,1.30
2022-10-19T12:15:03.535Z,1.10
2022-10-19T12:17:36.895Z,1.00
2022-10-19T12:20:19.024Z,1.05
2022-10-19T12:22:49.089Z,0.90
2022-10-19T12:25:17.558Z,0.70
2022-10-19T12:27:47.622Z,0.60
2022-10-19T12:30:20.674Z,0.60
2022-10-19T12:32:54.254Z,0.60
2022-10-19T12:35:21.271Z,0.60
2022-10-19T12:38:19.456Z,0.50
2022-10-19T12:41:12.445Z,0.70
2022-10-19T12:43:53.973Z,0.60
2022-10-19T12:46:42.945Z,0.50
2022-10-19T12:49:43.991Z,0.50
2022-10-19T12:52:12.086Z,0.50
2022-10-19T12:54:40.514Z,0.60
2022-10-19T12:57:25.948Z,0.50
2022-10-19T13:00:01.707Z,0.63
2022-10-19T13:02:35.704Z,0.50
2022-10-19T13:05:03.246Z,0.60
2022-10-19T13:07:33.210Z,0.50
2022-10-19T13:10:04.117Z,0.50
2022-10-19T13:12:43.637Z,0.98
2022-10-19T13:15:35.810Z,1.00
2022-10-19T13:18:04.189Z,0.90
2022-10-19T13:20:30.716Z,0.98
2022-10-19T13:23:00.226Z,1.00
2022-10-19T13:25:40.221Z,1.02
2022-10-19T13:28:06.813Z,1.00
2022-10-19T13:31:03.266Z,1.10
2022-10-19T13:33:44.495Z,1.10
2022-10-19T13:36:12.039Z,1.10
2022-10-19T13:38:43.336Z,1.00
2022-10-19T13:41:15.770Z,1.10
2022-10-19T13:44:18.273Z,1.20
2022-10-19T13:47:00.035Z,1.00
2022-10-19T13:50:15.182Z,0.90
2022-10-19T13:52:41.702Z,1.00
2022-10-19T13:55:37.478Z,1.20
2022-10-19T13:58:34.624Z,1.00
2022-10-19T14:01:38.319Z,1.17
2022-10-19T14:04:20.420Z,1.00
2022-10-19T14:07:04.554Z,1.05
2022-10-19T14:09:52.914Z,1.00
2022-10-19T14:12:27.172Z,1.30
2022-10-19T14:14:53.980Z,1.20
2022-10-19T14:17:28.045Z,1.00
2022-10-19T14:19:57.821Z,1.30
2022-10-19T14:22:36.262Z,1.30
2022-10-19T14:25:05.449Z,1.48
2022-10-19T14:27:33.399Z,1.52
2022-10-19T14:30:00.582Z,1.50
2022-10-19T14:32:29.477Z,1.50
2022-10-19T14:37:31.495Z,1.30
2022-10-19T14:40:07.617Z,1.50
2022-10-19T14:42:52.681Z,1.50
2022-10-19T14:45:26.233Z,1.50
2022-10-19T14:48:04.742Z,1.67
2022-10-19T14:50:40.292Z,1.80
2022-10-19T14:53:47.141Z,2.13
2022-10-19T14:56:38.433Z,2.10
2022-10-19T14:59:19.225Z,1.90
2022-10-19T15:01:55.537Z,2.30
2022-10-19T15:04:28.494Z,2.30
2022-10-19T15:06:57.891Z,2.63
2022-10-19T15:09:37.486Z,2.60
2022-10-19T15:12:20.342Z,3.00
2022-10-19T15:14:49.014Z,3.55
2022-10-19T15:17:30.208Z,4.20
2022-10-19T15:20:04.779Z,4.68
2022-10-19T15:22:32.066Z,5.70
2022-10-19T15:25:08.348Z,7.57
2022-10-19T15:27:37.318Z,7.47
2022-10-19T15:30:27.232Z,11.05
2022-10-19T15:33:02.997Z,13.13
2022-10-19T15:35:32.793Z,11.63
2022-10-19T15:38:02.867Z,17.63
2022-10-19T15:40:40.883Z,10.50
2022-10-19T15:43:35.046Z,18.13
2022-10-19T15:46:13.427Z,12.52
2022-10-19T15:48:51.204Z,8.23
2022-10-19T15:51:23.426Z,14.80
2022-10-19T15:53:55.686Z,5.57
2022-10-19T15:56:24.397Z,4.47
2022-10-19T15:58:52.982Z,4.63
2022-10-19T16:01:22.576Z,4.85
2022-10-19T16:03:49.675Z,7.88
2022-10-19T16:06:17.630Z,9.30
2022-10-19T16:08:47.591Z,7.35
2022-10-19T16:11:16.067Z,7.53
2022-10-19T16:13:45.996Z,8.65
2022-10-19T16:16:23.308Z,6.00
2022-10-19T16:18:50.609Z,11.20
2022-10-19T16:21:19.177Z,7.03
2022-10-19T16:23:46.230Z,5.38
2022-10-19T16:26:16.998Z,9.48
2022-10-19T16:28:44.534Z,7.03
2022-10-19T16:31:12.259Z,8.82
2022-10-19T16:33:44.032Z,10.73
2022-10-19T16:36:11.505Z,9.27
2022-10-19T16:38:38.670Z,7.22
2022-10-19T16:41:10.795Z,7.40
2022-10-19T16:43:46.335Z,5.50
2022-10-19T16:46:15.840Z,4.55
2022-10-19T16:48:42.589Z,4.78
2022-10-19T16:51:31.649Z,5.60
2022-10-19T16:53:58.978Z,5.30
2022-10-19T16:56:29.670Z,7.40
2022-10-19T16:58:59.994Z,6.38
2022-10-19T17:01:27.410Z,5.50
2022-10-19T17:03:54.938Z,4.83
2022-10-19T17:06:22.335Z,6.65
2022-10-19T17:11:38.755Z,5.95
2022-10-19T17:14:08.662Z,4.68
2022-10-19T17:16:36.786Z,5.18
2022-10-19T17:19:11.129Z,6.60
2022-10-19T17:21:39.010Z,5.93
2022-10-19T17:24:08.212Z,5.00
2022-10-19T17:26:38.645Z,4.90
2022-10-19T17:29:16.075Z,5.57
2022-10-19T17:31:43.532Z,5.43
2022-10-19T17:34:10.587Z,5.55
2022-10-19T17:39:10.886Z,5.20
2022-10-19T17:41:37.988Z,6.75
2022-10-19T17:44:05.385Z,5.60
2022-10-19T17:46:35.696Z,6.05
2022-10-19T17:49:03.021Z,6.18
2022-10-19T17:51:31.271Z,5.80
2022-10-19T17:54:00.330Z,6.05
2022-10-19T17:56:27.957Z,4.90
2022-10-19T17:58:55.864Z,6.03
2022-10-19T18:01:22.927Z,5.77
2022-10-19T18:03:50.374Z,5.72
2022-10-19T18:06:25.791Z,5.80
2022-10-19T18:08:54.404Z,6.65
2022-10-19T18:11:25.109Z,5.30
2022-10-19T18:13:54.782Z,6.30
2022-10-19T18:16:33.875Z,6.80
2022-10-19T18:19:02.228Z,6.00
2022-10-19T18:21:34.322Z,5.97
2022-10-19T18:24:02.424Z,6.28
2022-10-19T18:26:32.411Z,7.40
2022-10-19T18:29:00.926Z,6.20
2022-10-19T18:31:30.598Z,6.35
2022-10-19T18:33:59.848Z,5.82
2022-10-19T18:36:26.781Z,6.93
2022-10-19T18:38:55.429Z,5.82
2022-10-19T18:41:22.746Z,7.47
2022-10-19T18:44:05.050Z,7.93
2022-10-19T18:46:34.379Z,7.85
2022-10-19T18:49:01.791Z,7.68
2022-10-19T18:51:29.101Z,8.00
2022-10-19T18:53:55.668Z,7.60
2022-10-19T18:56:23.017Z,8.73
2022-10-19T18:58:50.308Z,8.45
2022-10-19T19:01:27.057Z,8.80
2022-10-19T19:03:57.334Z,9.68
2022-10-19T19:06:28.901Z,9.88
2022-10-19T19:08:57.409Z,9.55
2022-10-19T19:11:26.615Z,15.73
2022-10-19T19:13:59.555Z,56.92
2022-10-19T19:16:28.037Z,39.63
2022-10-19T19:18:55.281Z,17.00
2022-10-19T19:21:28.014Z,12.60
2022-10-19T19:23:57.397Z,13.35
2022-10-19T19:26:26.335Z,13.43
2022-10-19T19:28:53.006Z,12.75
2022-10-19T19:31:20.022Z,13.35
2022-10-19T19:33:47.187Z,12.05
2022-10-19T19:36:15.870Z,13.63
2022-10-19T19:38:43.072Z,12.43
2022-10-19T19:41:13.226Z,12.00
2022-10-19T19:43:40.829Z,11.68
2022-10-19T19:46:12.463Z,10.90
2022-10-19T19:48:41.328Z,12.70
2022-10-19T19:51:13.973Z,10.25
2022-10-19T19:53:40.611Z,9.77
2022-10-19T19:56:08.985Z,8.20
2022-10-19T19:58:36.083Z,8.25
2022-10-19T20:01:13.656Z,8.27
2022-10-19T20:03:41.050Z,9.20
2022-10-19T20:06:08.024Z,8.07
2022-10-19T20:08:36.232Z,7.38
2022-10-19T20:11:05.350Z,7.82
2022-10-19T20:13:32.417Z,6.37
2022-10-19T20:16:02.378Z,7.78
2022-10-19T20:18:29.594Z,7.78
2022-10-19T20:21:01.064Z,7.43
2022-10-19T20:23:28.170Z,6.90
2022-10-19T20:25:56.298Z,6.55
2022-10-19T20:28:24.933Z,7.95
2022-10-19T20:31:05.190Z,8.50
2022-10-19T20:33:34.263Z,12.50
2022-10-19T20:36:12.696Z,14.10
2022-10-19T20:38:40.586Z,18.08
2022-10-19T20:41:09.092Z,20.95
2022-10-19T20:43:37.105Z,27.47
2022-10-19T20:46:04.817Z,45.60
2022-10-19T20:48:31.681Z,72.17
2022-10-19T20:51:15.007Z,71.80
2022-10-19T20:53:47.328Z,76.57
2022-10-19T20:56:16.928Z,99.53
2022-10-19T20:58:44.907Z,100.90
2022-10-19T21:01:17.517Z,109.18
2022-10-19T21:03:48.936Z,108.37
2022-10-19T21:06:15.688Z,94.15
2022-10-19T21:08:42.696Z,96.65
2022-10-19T21:11:22.287Z,94.30
2022-10-19T21:13:52.315Z,93.85
2022-10-19T21:16:21.648Z,97.90
2022-10-19T21:18:49.622Z,95.90
2022-10-19T21:21:28.059Z,95.10
2022-10-19T21:23:57.982Z,112.22
2022-10-19T21:26:26.139Z,105.93
2022-10-19T21:28:53.282Z,113.45
2022-10-19T21:31:21.686Z,124.07
2022-10-19T21:33:48.800Z,162.38
2022-10-19T21:36:15.958Z,149.97
2022-10-19T21:38:42.891Z,151.70
2022-10-19T21:41:15.163Z,150.13
2022-10-19T21:43:42.314Z,157.17
2022-10-19T21:46:13.759Z,166.10
2022-10-19T21:48:40.916Z,185.52
2022-10-19T21:51:16.562Z,186.82
2022-10-19T21:53:43.777Z,183.20
2022-10-19T21:56:10.319Z,196.20
2022-10-19T21:58:36.908Z,183.95
2022-10-19T22:01:06.924Z,169.80
2022-10-19T22:03:33.946Z,173.65
2022-10-19T22:06:00.790Z,176.25
2022-10-19T22:08:27.482Z,186.57
2022-10-19T22:10:54.194Z,187.27
2022-10-19T22:13:20.732Z,188.20
2022-10-19T22:15:47.254Z,184.25
2022-10-19T22:18:13.773Z,200.25
2022-10-19T22:20:40.654Z,196.05
2022-10-19T22:23:08.112Z,195.32
2022-10-19T22:25:35.434Z,186.30
2022-10-19T22:28:01.980Z,192.05
2022-10-19T22:30:28.593Z,193.52
2022-10-19T22:32:55.897Z,193.88
2022-10-19T22:35:22.461Z,204.82
2022-10-19T22:37:49.041Z,208.02
2022-10-19T22:40:15.628Z,211.00
2022-10-19T22:42:42.178Z,213.07
2022-10-19T22:45:08.940Z,208.00
2022-10-19T22:47:35.585Z,215.47
2022-10-19T22:50:02.117Z,220.18
2022-10-19T22:52:28.655Z,217.52
2022-10-19T22:54:55.311Z,212.50
2022-10-19T22:57:21.947Z,205.70
2022-10-19T22:59:48.438Z,195.57
2022-10-19T23:02:15.005Z,175.68
2022-10-19T23:04:41.670Z,179.73
2022-10-19T23:07:08.255Z,172.50
2022-10-19T23:09:34.920Z,166.90
2022-10-19T23:12:01.390Z,175.67
2022-10-19T23:14:27.934Z,169.32
2022-10-19T23:16:54.455Z,166.05
2022-10-19T23:19:21.054Z,160.40
2022-10-19T23:21:47.633Z,163.97
2022-10-19T23:24:14.175Z,168.30
2022-10-19T23:26:40.809Z,171.50
2022-10-19T23:29:07.395Z,169.15
2022-10-19T23:31:33.988Z,168.48
2022-10-19T23:34:00.648Z,170.85
2022-10-19T23:36:29.077Z,165.98
2022-10-19T23:38:57.833Z,161.75
2022-10-19T23:41:24.644Z,150.02
2022-10-19T23:43:51.652Z,151.93
2022-10-19T23:46:18.876Z,144.40
2022-10-19T23:48:45.666Z,139.93
2022-10-19T23:51:15.270Z,127.90
2022-10-19T23:53:44.549Z,126.90
2022-10-19T23:56:17.059Z,120.07
2022-10-19T23:58:43.842Z,107.03
